Meservey, Iowa
Current Conditions -  °F | °C
As of 2:53 PM on Friday 31 Oct 2014 (Local Time) from KMCW Reporting Station
Clear Clear  
Wind Chill: 33°   Ceiling: Unl
Heat Index: 40°   Visibility: 10mi
Dew Point: 18°   Wind: 13mph
Humidity: 41%   Direction: 10°N
Pressure: 30.47"   Gusts: 22mph
Location:  42.91°N, 93.48°W
Report Text: KMCW 311953Z AUTO 01011G19KT 10SM CLR 04/M08 A3047 RMK AO2 SLP327 T00441078
Loading
Personal Weather Stations






























Interactive Weather Map
Tropical Storm Tracking
New forecast layout! Learn more

10-Day Weather Forecast

Advertisements
Track Severe Weather on mobile